createdAt,value
2018-08-16T00:01:23.405Z,10.58
2018-08-16T00:03:51.047Z,10.53
2018-08-16T00:06:18.523Z,10.60
2018-08-16T00:08:45.979Z,10.68
2018-08-16T00:11:13.241Z,10.60
2018-08-16T00:13:40.543Z,10.17
2018-08-16T00:16:07.941Z,10.53
2018-08-16T00:18:35.191Z,11.27
2018-08-16T00:21:02.448Z,9.60
2018-08-16T00:23:29.670Z,10.33
2018-08-16T00:25:57.042Z,10.00
2018-08-16T00:28:24.340Z,10.60
2018-08-16T00:30:51.848Z,10.80
2018-08-16T00:33:19.027Z,11.13
2018-08-16T00:35:46.278Z,10.63
2018-08-16T00:38:13.607Z,10.23
2018-08-16T00:40:40.906Z,10.60
2018-08-16T00:43:08.323Z,11.10
2018-08-16T00:45:35.577Z,10.47
2018-08-16T00:48:02.941Z,11.30
2018-08-16T00:50:30.172Z,10.57
2018-08-16T00:52:57.641Z,11.13
2018-08-16T00:55:24.917Z,11.57
2018-08-16T00:57:52.195Z,11.17
2018-08-16T01:00:19.652Z,11.30
2018-08-16T01:02:46.911Z,11.13
2018-08-16T01:05:14.392Z,11.30
2018-08-16T01:07:42.163Z,11.57
2018-08-16T01:10:11.051Z,12.30
2018-08-16T01:12:38.364Z,11.10
2018-08-16T01:15:09.588Z,13.23
2018-08-16T01:17:36.851Z,12.97
2018-08-16T01:20:04.256Z,12.27
2018-08-16T01:22:31.517Z,12.20
2018-08-16T01:24:58.767Z,11.87
2018-08-16T01:27:26.054Z,13.70
2018-08-16T01:29:53.276Z,12.67
2018-08-16T01:32:20.547Z,12.90
2018-08-16T01:34:47.787Z,12.83
2018-08-16T01:37:15.005Z,12.00
2018-08-16T01:39:42.271Z,13.50
2018-08-16T01:42:09.518Z,13.30
2018-08-16T01:44:37.179Z,12.90
2018-08-16T01:47:04.396Z,12.57
2018-08-16T01:49:34.803Z,13.40
2018-08-16T01:52:02.203Z,13.20
2018-08-16T01:54:30.336Z,13.53
2018-08-16T01:56:58.619Z,13.07
2018-08-16T01:59:26.078Z,14.63
2018-08-16T02:01:53.377Z,13.23
2018-08-16T02:04:20.676Z,13.83
2018-08-16T02:06:49.004Z,12.73
2018-08-16T02:09:16.346Z,13.40
2018-08-16T02:11:43.669Z,14.33
2018-08-16T02:14:10.911Z,13.70
2018-08-16T02:16:38.848Z,13.67
2018-08-16T02:19:06.149Z,13.50
2018-08-16T02:21:34.863Z,14.10
2018-08-16T02:24:03.475Z,13.80
2018-08-16T02:26:30.910Z,13.90
2018-08-16T02:28:58.341Z,13.60
2018-08-16T02:31:25.669Z,15.13
2018-08-16T02:33:53.328Z,13.83
2018-08-16T02:36:20.584Z,14.33
2018-08-16T02:38:47.911Z,14.20
2018-08-16T02:41:15.339Z,14.70
2018-08-16T02:43:42.567Z,13.90
2018-08-16T02:46:09.918Z,14.33
2018-08-16T02:48:37.902Z,14.10
2018-08-16T02:51:05.188Z,14.17
2018-08-16T02:53:33.341Z,14.33
2018-08-16T02:56:00.728Z,13.90
2018-08-16T02:58:28.014Z,15.90
2018-08-16T03:00:55.286Z,16.93
2018-08-16T03:03:22.548Z,16.80
2018-08-16T03:05:49.756Z,16.43
2018-08-16T03:08:17.095Z,16.70
2018-08-16T03:10:44.313Z,15.10
2018-08-16T03:13:12.080Z,14.28
2018-08-16T03:15:39.469Z,14.80
2018-08-16T03:18:06.748Z,14.25
2018-08-16T03:20:34.051Z,15.00
2018-08-16T03:23:02.251Z,14.30
2018-08-16T03:25:30.497Z,14.83
2018-08-16T03:27:58.474Z,14.15
2018-08-16T03:30:25.701Z,14.00
2018-08-16T03:32:53.003Z,13.50
2018-08-16T03:35:20.416Z,14.40
2018-08-16T03:37:47.696Z,14.20
2018-08-16T03:40:14.944Z,13.40
2018-08-16T03:42:42.217Z,13.05
2018-08-16T03:45:09.433Z,13.30
2018-08-16T03:47:36.821Z,12.80
2018-08-16T03:50:04.747Z,13.08
2018-08-16T03:52:31.970Z,12.73
2018-08-16T03:54:59.223Z,12.50
2018-08-16T03:57:26.501Z,13.65
2018-08-16T03:59:53.799Z,13.40
2018-08-16T04:02:50.095Z,12.50
2018-08-16T04:05:17.372Z,13.40
2018-08-16T04:07:44.613Z,13.35
2018-08-16T04:10:11.846Z,13.80
2018-08-16T04:12:39.121Z,13.95
2018-08-16T04:15:06.420Z,13.93
2018-08-16T04:17:36.088Z,14.20
2018-08-16T04:20:04.563Z,13.90
2018-08-16T04:22:31.858Z,14.53
2018-08-16T04:24:59.227Z,15.55
2018-08-16T04:27:27.097Z,14.90
2018-08-16T04:29:54.396Z,15.65
2018-08-16T04:32:21.936Z,16.30
2018-08-16T04:34:49.216Z,20.50
2018-08-16T04:37:16.860Z,16.37
2018-08-16T04:39:44.263Z,15.40
2018-08-16T04:42:11.941Z,15.73
2018-08-16T04:44:39.300Z,14.58
2018-08-16T04:47:06.708Z,15.90
2018-08-16T04:49:34.827Z,14.65
2018-08-16T04:52:02.264Z,14.00
2018-08-16T04:54:30.711Z,13.78
2018-08-16T04:56:58.033Z,14.98
2018-08-16T04:59:25.292Z,15.38
2018-08-16T05:01:52.797Z,15.03
2018-08-16T05:04:20.445Z,13.93
2018-08-16T05:06:47.772Z,14.20
2018-08-16T05:09:15.149Z,14.07
2018-08-16T05:11:42.438Z,13.68
2018-08-16T05:14:10.670Z,14.63
2018-08-16T05:16:39.784Z,13.83
2018-08-16T05:19:07.347Z,13.15
2018-08-16T05:21:35.004Z,14.23
2018-08-16T05:24:02.378Z,14.15
2018-08-16T05:26:29.642Z,13.78
2018-08-16T05:28:57.380Z,13.80
2018-08-16T05:31:24.710Z,13.58
2018-08-16T05:33:52.101Z,13.48
2018-08-16T05:36:19.446Z,13.68
2018-08-16T05:38:46.855Z,13.00
2018-08-16T05:41:14.227Z,14.00
2018-08-16T05:43:41.514Z,13.55
2018-08-16T05:46:09.090Z,13.35
2018-08-16T05:48:37.292Z,14.07
2018-08-16T05:51:05.218Z,12.93
2018-08-16T05:53:32.521Z,13.55
2018-08-16T05:55:59.876Z,13.10
2018-08-16T05:58:27.195Z,13.05
2018-08-16T06:00:54.535Z,13.60
2018-08-16T06:03:21.872Z,13.72
2018-08-16T06:05:49.226Z,13.60
2018-08-16T06:08:16.591Z,13.25
2018-08-16T06:10:43.996Z,13.68
2018-08-16T06:13:11.365Z,13.80
2018-08-16T06:15:38.856Z,13.90
2018-08-16T06:18:06.255Z,14.23
2018-08-16T06:20:33.525Z,13.75
2018-08-16T06:23:00.899Z,13.70
2018-08-16T06:25:28.228Z,13.53
2018-08-16T06:27:55.576Z,13.60
2018-08-16T06:30:23.155Z,13.50
2018-08-16T06:32:50.485Z,13.50
2018-08-16T06:35:18.270Z,13.50
2018-08-16T06:37:45.607Z,14.10
2018-08-16T06:40:16.636Z,13.38
2018-08-16T06:42:44.779Z,13.88
2018-08-16T06:45:12.073Z,13.58
2018-08-16T06:47:39.358Z,14.90
2018-08-16T06:50:07.204Z,15.30
2018-08-16T06:52:34.702Z,15.38
2018-08-16T06:55:02.952Z,15.15
2018-08-16T06:57:30.328Z,14.00
2018-08-16T06:59:57.600Z,14.50
2018-08-16T07:02:25.028Z,14.05
2018-08-16T07:04:52.371Z,13.78
2018-08-16T07:07:19.675Z,14.20
2018-08-16T07:09:46.990Z,13.60
2018-08-16T07:12:14.437Z,13.25
2018-08-16T07:14:41.663Z,13.80
2018-08-16T07:17:09.147Z,13.00
2018-08-16T07:19:36.822Z,12.45
2018-08-16T07:22:04.156Z,12.37
2018-08-16T07:24:31.428Z,12.47
2018-08-16T07:26:59.542Z,12.18
2018-08-16T07:29:27.008Z,12.87
2018-08-16T07:31:54.708Z,11.50
2018-08-16T07:34:22.107Z,11.37
2018-08-16T07:36:49.645Z,11.40
2018-08-16T07:39:17.008Z,11.35
2018-08-16T07:41:44.362Z,11.85
2018-08-16T07:44:11.791Z,11.40
2018-08-16T07:46:39.210Z,11.30
2018-08-16T07:49:06.538Z,11.05
2018-08-16T07:51:34.278Z,12.85
2018-08-16T07:54:01.761Z,11.88
2018-08-16T07:56:29.116Z,13.08
2018-08-16T07:58:56.464Z,12.90
2018-08-16T08:01:23.833Z,13.87
2018-08-16T08:03:51.236Z,13.98
2018-08-16T08:06:19.007Z,15.60
2018-08-16T08:08:46.320Z,16.02
2018-08-16T08:11:13.580Z,19.60
2018-08-16T08:13:41.363Z,19.20
2018-08-16T08:16:08.822Z,19.15
2018-08-16T08:18:36.175Z,20.12
2018-08-16T08:21:03.548Z,19.90
2018-08-16T08:23:30.832Z,17.25
2018-08-16T08:25:58.125Z,17.98
2018-08-16T08:28:25.399Z,18.53
2018-08-16T08:30:58.321Z,18.77
2018-08-16T08:33:26.188Z,19.57
2018-08-16T08:36:04.876Z,18.20
2018-08-16T08:38:32.165Z,18.17
2018-08-16T08:40:59.494Z,17.57
2018-08-16T08:43:38.254Z,16.90
2018-08-16T08:46:07.388Z,16.40
2018-08-16T08:48:34.715Z,17.40
2018-08-16T08:51:02.093Z,15.80
2018-08-16T08:55:10.200Z,14.70
2018-08-16T08:57:48.968Z,12.80
2018-08-16T09:00:16.352Z,12.83
2018-08-16T09:02:43.779Z,12.98
2018-08-16T09:05:11.044Z,11.83
2018-08-16T09:07:38.409Z,11.70
2018-08-16T09:11:16.448Z,11.80
2018-08-16T09:13:56.797Z,10.00
2018-08-16T09:16:28.353Z,10.90
2018-08-16T09:18:56.146Z,10.60
2018-08-16T09:21:23.383Z,9.90
2018-08-16T09:23:51.261Z,10.50
2018-08-16T09:26:24.176Z,9.60
2018-08-16T09:28:51.601Z,10.40
2018-08-16T09:31:30.506Z,8.50
2018-08-16T09:34:12.973Z,8.90
2018-08-16T09:36:40.381Z,8.48
2018-08-16T09:39:09.193Z,8.58
2018-08-16T09:41:37.525Z,8.33
2018-08-16T09:44:05.516Z,8.35
2018-08-16T09:46:58.865Z,8.30
2018-08-16T09:49:26.614Z,8.00
2018-08-16T09:51:54.000Z,7.90
2018-08-16T09:54:28.338Z,6.87
2018-08-16T09:56:57.700Z,7.40
2018-08-16T09:59:25.053Z,7.60
2018-08-16T10:01:52.410Z,7.22
2018-08-16T10:04:19.805Z,6.33
2018-08-16T10:06:47.515Z,6.27
2018-08-16T10:09:16.670Z,5.17
2018-08-16T10:11:44.578Z,5.53
2018-08-16T10:14:11.928Z,6.17
2018-08-16T10:16:39.264Z,7.12
2018-08-16T10:19:06.636Z,5.90
2018-08-16T10:21:33.994Z,6.17
2018-08-16T10:24:02.944Z,5.00
2018-08-16T10:26:30.188Z,5.30
2018-08-16T10:28:57.424Z,6.17
2018-08-16T10:31:24.835Z,5.40
2018-08-16T10:33:52.337Z,5.95
2018-08-16T10:36:19.794Z,5.10
2018-08-16T10:38:47.212Z,5.33
2018-08-16T10:41:14.579Z,4.90
2018-08-16T10:43:42.052Z,5.10
2018-08-16T10:46:09.407Z,5.17
2018-08-16T10:48:36.791Z,5.50
2018-08-16T10:51:04.259Z,4.90
2018-08-16T10:53:32.428Z,3.72
2018-08-16T10:56:00.423Z,4.65
2018-08-16T10:58:27.829Z,4.20
2018-08-16T11:00:55.577Z,4.30
2018-08-16T11:03:24.087Z,5.50
2018-08-16T11:05:52.082Z,4.35
2018-08-16T11:08:20.388Z,4.10
2018-08-16T11:10:48.089Z,4.40
2018-08-16T11:13:15.451Z,4.93
2018-08-16T11:18:09.815Z,5.27
2018-08-16T11:25:32.132Z,4.20
2018-08-16T11:27:59.385Z,4.63
2018-08-16T11:32:53.972Z,3.70
2018-08-16T11:35:21.257Z,4.75
2018-08-16T11:37:48.664Z,4.28
2018-08-16T11:40:16.016Z,4.10
2018-08-16T11:42:43.348Z,4.40
2018-08-16T11:45:10.674Z,4.40
2018-08-16T11:47:38.296Z,4.50
2018-08-16T11:50:05.999Z,4.10
2018-08-16T11:52:33.356Z,4.53
2018-08-16T12:19:29.648Z,4.33
2018-08-16T12:21:56.943Z,4.00
2018-08-16T12:24:25.252Z,4.00
2018-08-16T12:26:52.530Z,3.90
2018-08-16T12:29:21.839Z,3.70
2018-08-16T12:31:49.140Z,3.50
2018-08-16T12:34:16.492Z,3.75
2018-08-16T12:36:43.830Z,3.40
2018-08-16T12:39:11.191Z,4.20
2018-08-16T12:41:39.416Z,3.50
2018-08-16T12:44:06.786Z,3.20
2018-08-16T12:46:34.130Z,3.43
2018-08-16T12:49:01.433Z,3.47
2018-08-16T12:51:29.828Z,3.40
2018-08-16T12:53:57.265Z,3.45
2018-08-16T13:20:57.887Z,3.40
2018-08-16T13:23:25.246Z,3.10
2018-08-16T13:25:52.758Z,3.00
2018-08-16T13:28:20.047Z,3.00
2018-08-16T13:30:47.355Z,2.95
2018-08-16T13:33:14.695Z,3.60
2018-08-16T13:35:42.533Z,2.92
2018-08-16T13:38:09.824Z,3.40
2018-08-16T13:40:37.355Z,3.20
2018-08-16T13:43:05.166Z,2.87
2018-08-16T13:45:32.464Z,3.05
2018-08-16T13:48:00.150Z,3.40
2018-08-16T13:50:27.473Z,2.90
2018-08-16T13:52:54.795Z,3.33
2018-08-16T13:55:22.129Z,2.90
2018-08-16T13:57:49.439Z,2.72
2018-08-16T14:00:16.780Z,3.10
2018-08-16T14:02:44.015Z,3.22
2018-08-16T14:05:11.898Z,3.10
2018-08-16T14:07:39.156Z,3.30
2018-08-16T14:10:07.837Z,2.60
2018-08-16T14:12:35.248Z,3.00
2018-08-16T14:15:02.644Z,3.10
2018-08-16T14:17:29.953Z,3.00
2018-08-16T14:19:57.305Z,2.80
2018-08-16T14:22:24.668Z,2.60
2018-08-16T14:24:52.989Z,2.50
2018-08-16T14:27:20.247Z,2.70
2018-08-16T14:29:47.797Z,2.92
2018-08-16T14:32:15.310Z,2.80
2018-08-16T14:34:42.556Z,2.80
2018-08-16T14:37:09.924Z,2.80
2018-08-16T14:39:38.204Z,2.75
2018-08-16T14:42:06.199Z,2.50
2018-08-16T14:44:33.572Z,2.60
2018-08-16T14:47:01.026Z,2.80
2018-08-16T14:49:28.667Z,2.90
2018-08-16T14:51:55.896Z,2.70
2018-08-16T14:54:23.323Z,2.60
2018-08-16T14:56:50.705Z,2.80
2018-08-16T14:59:18.062Z,2.83
2018-08-16T15:01:45.592Z,2.77
2018-08-16T15:04:12.851Z,2.70
2018-08-16T15:06:40.265Z,3.07
2018-08-16T15:09:09.072Z,5.80
2018-08-16T15:11:36.543Z,4.28
2018-08-16T15:14:04.012Z,2.70
2018-08-16T15:16:31.315Z,3.10
2018-08-16T15:18:59.174Z,2.90
2018-08-16T15:21:26.630Z,2.70
2018-08-16T15:23:53.916Z,2.80
2018-08-16T15:26:21.230Z,2.80
2018-08-16T15:28:48.700Z,2.63
2018-08-16T15:31:16.447Z,2.62
2018-08-16T15:33:43.720Z,3.25
2018-08-16T15:36:11.205Z,3.00
2018-08-16T15:38:38.475Z,3.17
2018-08-16T15:41:07.223Z,3.00
2018-08-16T16:15:23.939Z,4.20
2018-08-16T16:30:07.102Z,5.53
2018-08-16T16:32:34.456Z,5.30
2018-08-16T16:35:01.776Z,5.27
2018-08-16T16:37:29.167Z,4.62
2018-08-16T16:39:56.519Z,4.95
2018-08-16T16:42:23.803Z,5.05
2018-08-16T16:44:51.272Z,5.35
2018-08-16T16:47:18.659Z,5.70
2018-08-16T16:49:46.012Z,5.30
2018-08-16T16:52:19.126Z,5.42
2018-08-16T16:54:46.495Z,5.70
2018-08-16T16:57:14.173Z,5.50
2018-08-16T16:59:41.645Z,5.25
2018-08-16T17:02:08.944Z,5.90
2018-08-16T17:04:36.163Z,5.72
2018-08-16T17:07:03.598Z,5.83
2018-08-16T17:09:30.871Z,5.78
2018-08-16T17:11:58.377Z,6.15
2018-08-16T17:14:25.739Z,5.30
2018-08-16T17:16:53.034Z,6.35
2018-08-16T17:19:20.582Z,6.42
2018-08-16T17:21:47.908Z,6.40
2018-08-16T17:24:15.138Z,6.55
2018-08-16T17:26:42.409Z,6.90
2018-08-16T17:29:09.679Z,6.30
2018-08-16T17:31:36.946Z,7.30
2018-08-16T17:34:04.607Z,6.77
2018-08-16T17:36:31.867Z,6.37
2018-08-16T17:38:59.223Z,7.83
2018-08-16T18:25:37.383Z,12.23
2018-08-16T18:28:04.823Z,12.43
2018-08-16T18:30:32.373Z,14.47
2018-08-16T18:32:59.678Z,13.63
2018-08-16T18:35:27.220Z,14.07
2018-08-16T18:52:35.471Z,14.83
2018-08-16T18:55:03.105Z,20.87
2018-08-16T18:57:30.542Z,18.40
2018-08-16T18:59:57.767Z,18.83
2018-08-16T19:02:25.096Z,17.47
2018-08-16T19:04:52.600Z,17.03
2018-08-16T19:07:19.835Z,18.40
2018-08-16T19:09:47.235Z,18.80
2018-08-16T19:12:14.838Z,18.77
2018-08-16T19:14:42.071Z,18.63
2018-08-16T19:17:09.427Z,19.47
2018-08-16T19:19:37.064Z,17.63
2018-08-16T19:22:04.396Z,14.70
2018-08-16T19:24:31.647Z,13.80
2018-08-16T19:27:00.965Z,14.53
2018-08-16T19:29:28.329Z,14.17
2018-08-16T19:31:55.562Z,19.13
2018-08-16T19:34:22.771Z,14.20
2018-08-16T19:36:49.997Z,15.70
2018-08-16T19:39:17.298Z,34.30
2018-08-16T19:41:44.927Z,27.33
2018-08-16T19:44:12.153Z,14.23
2018-08-16T19:46:39.347Z,13.83
2018-08-16T19:49:06.588Z,16.23
2018-08-16T19:51:33.863Z,14.63
2018-08-16T19:54:01.216Z,15.07
2018-08-16T19:56:28.610Z,18.70
2018-08-16T19:58:55.890Z,14.20
2018-08-16T20:01:23.263Z,14.30
2018-08-16T20:03:50.459Z,25.97
2018-08-16T20:06:17.983Z,31.70
2018-08-16T20:08:45.840Z,13.27
2018-08-16T20:11:13.051Z,13.20
2018-08-16T20:13:40.336Z,13.60
2018-08-16T20:16:07.581Z,13.33
2018-08-16T20:18:34.809Z,13.10
2018-08-16T20:21:02.054Z,12.00
2018-08-16T20:23:29.904Z,12.17
2018-08-16T20:25:57.206Z,12.20
2018-08-16T20:28:24.475Z,11.80
2018-08-16T20:30:51.689Z,11.40
2018-08-16T20:33:18.959Z,12.00
2018-08-16T20:35:46.207Z,11.70
2018-08-16T20:38:13.460Z,13.30
2018-08-16T20:40:40.675Z,12.20
2018-08-16T20:43:07.945Z,13.03
2018-08-16T20:45:35.146Z,14.30
2018-08-16T20:48:02.391Z,13.60
2018-08-16T20:50:29.962Z,12.13
2018-08-16T20:52:57.228Z,12.17
2018-08-16T20:55:24.453Z,15.50
2018-08-16T20:57:51.721Z,15.88
2018-08-16T21:00:18.882Z,11.97
2018-08-16T21:02:46.109Z,11.65
2018-08-16T21:05:13.398Z,12.80
2018-08-16T21:07:40.675Z,12.60
2018-08-16T21:10:09.212Z,12.58
2018-08-16T21:12:36.559Z,14.68
2018-08-16T21:15:04.798Z,11.88
2018-08-16T23:19:57.377Z,17.55
2018-08-16T23:22:24.641Z,17.60
2018-08-16T23:24:51.832Z,18.25
2018-08-16T23:27:19.076Z,18.30
2018-08-16T23:29:46.339Z,18.90
2018-08-16T23:32:13.560Z,18.98
2018-08-16T23:34:40.780Z,18.90
2018-08-16T23:37:08.035Z,20.05
2018-08-16T23:39:35.223Z,18.57
2018-08-16T23:42:02.469Z,19.10
2018-08-16T23:44:29.742Z,18.82
2018-08-16T23:46:57.080Z,18.53
2018-08-16T23:49:24.300Z,18.50
2018-08-16T23:51:51.523Z,17.60
2018-08-16T23:54:18.711Z,17.10
2018-08-16T23:56:46.192Z,16.67
2018-08-16T23:59:13.415Z,19.30
